Time;durP1;ratioP1;P1;durP2;ratioP2;P2;SDS_P1;SDS_P2;PMS_P1;PMS_P2;Temp;Humidity;BMP_temperature;BMP_pressure;BME280_temperature;BME280_humidity;BME280_pressure;Samples;Min_cycle;Max_cycle;Signal;HPM_P1;HPM_P2
2022/03/09 00:01:15;;;;;;;2.67;1.43;;;;;;;1.72;59.57;94388.19;2615434;47;20145;-78
2022/03/09 00:03:46;;;;;;;1.93;1.93;;;;;;;2.02;63.66;94409.56;2615440;54;20164;-81
2022/03/09 00:06:15;;;;;;;1.40;1.40;;;;;;;1.46;63.65;94417.28;2615018;47;20300;-78
2022/03/09 00:08:43;;;;;;;6.13;5.13;;;;;;;2.11;64.88;94397.53;2615388;39;20760;-78
2022/03/09 00:11:12;;;;;;;2.23;2.13;;;;;;;1.18;59.93;94324.91;2615652;51;20141;-78
2022/03/09 00:13:41;;;;;;;1.83;1.83;;;;;;;1.59;63.67;94356.03;2615298;54;20168;-79
2022/03/09 00:16:12;;;;;;;3.60;3.40;;;;;;;2.58;67.29;94411.44;2615344;54;20156;-79
2022/03/09 00:18:41;;;;;;;4.60;4.20;;;;;;;3.21;62.38;94412.94;2615358;54;20167;-80
2022/03/09 00:21:12;;;;;;;3.07;2.30;;;;;;;3.60;64.08;94397.50;2615409;47;20180;-77
2022/03/09 00:23:50;;;;;;;6.35;4.70;;;;;;;3.20;59.80;94411.47;2614790;54;20399;-78
2022/03/09 00:26:21;;;;;;;1.43;1.33;;;;;;;2.89;59.53;94393.59;2614929;54;20167;-79
2022/03/09 00:28:57;;;;;;;2.63;2.57;;;;;;;2.31;60.57;94367.28;2615316;47;20680;-77
2022/03/09 00:31:26;;;;;;;4.60;2.23;;;;;;;1.88;61.76;94251.59;2615427;47;20763;-78
2022/03/09 00:33:55;;;;;;;4.03;3.72;;;;;;;2.70;62.01;94408.63;2614737;47;21219;-79
2022/03/09 00:36:26;;;;;;;4.40;3.33;;;;;;;2.34;59.60;94380.00;2615130;54;20157;-78
2022/03/09 00:38:56;;;;;;;2.70;2.50;;;;;;;3.20;62.10;94403.06;2615763;39;20601;-78
2022/03/09 00:41:24;;;;;;;5.27;4.77;;;;;;;3.16;62.24;94405.63;2614810;47;20157;-77
2022/03/09 00:43:53;;;;;;;1.27;0.90;;;;;;;2.68;58.15;94408.50;2615002;47;20141;-77
2022/03/09 00:46:22;;;;;;;1.00;1.00;;;;;;;2.52;58.46;94404.75;2615399;47;20695;-77
2022/03/09 00:48:50;;;;;;;1.20;1.20;;;;;;;2.01;58.14;94387.81;2615882;47;20199;-77
2022/03/09 00:51:19;;;;;;;1.20;1.20;;;;;;;1.80;62.48;94377.50;2615755;54;20676;-78
2022/03/09 00:53:50;;;;;;;1.77;1.77;;;;;;;1.83;61.73;94398.63;2615117;54;20242;-78
2022/03/09 00:56:19;;;;;;;2.70;2.50;;;;;;;1.60;58.64;94393.75;2614877;54;20161;-78
2022/03/09 00:58:48;;;;;;;1.17;1.15;;;;;;;2.00;65.53;94394.75;2615268;47;20476;-77
2022/03/09 01:01:17;;;;;;;1.77;1.77;;;;;;;2.00;64.48;94381.50;2615554;54;20160;-79
2022/03/09 01:03:46;;;;;;;2.47;2.37;;;;;;;2.57;69.97;94361.75;2615763;54;20145;-80
2022/03/09 01:06:15;;;;;;;2.20;2.10;;;;;;;2.38;61.23;94357.88;2616086;54;20215;-80
2022/03/09 01:08:43;;;;;;;5.10;2.73;;;;;;;3.03;61.40;94369.22;2616291;47;20759;-77
2022/03/09 01:11:15;;;;;;;5.20;4.80;;;;;;;4.20;67.50;94360.75;2616238;39;20761;-77
2022/03/09 01:13:43;;;;;;;5.50;5.00;;;;;;;4.41;61.34;94321.16;2615763;47;20157;-79
2022/03/09 01:16:12;;;;;;;7.68;5.40;;;;;;;5.38;63.39;94372.13;2615494;54;20419;-79
2022/03/09 01:18:41;;;;;;;3.03;2.80;;;;;;;5.65;58.96;94344.59;2616037;54;20244;-78
2022/03/09 01:21:15;;;;;;;3.27;2.50;;;;;;;5.26;58.80;94369.47;2616148;47;20157;-79
2022/03/09 01:23:43;;;;;;;2.90;2.87;;;;;;;4.24;51.56;94360.94;2616010;47;20165;-76
2022/03/09 01:26:15;;;;;;;7.60;2.37;;;;;;;3.81;55.21;94338.44;2615923;47;20157;-76
2022/03/09 01:28:43;;;;;;;3.23;3.13;;;;;;;3.97;58.24;94358.88;2615871;54;20261;-78
2022/03/09 01:31:12;;;;;;;2.60;2.50;;;;;;;4.06;60.78;94362.81;2615838;54;20179;-78
2022/03/09 01:33:41;;;;;;;3.00;2.20;;;;;;;3.82;56.21;94368.63;2616195;39;20571;-77
2022/03/09 01:36:09;;;;;;;2.30;2.03;;;;;;;2.76;53.50;94355.81;2616002;54;20177;-80
2022/03/09 01:38:38;;;;;;;3.47;2.40;;;;;;;3.11;59.92;94372.47;2616370;47;20272;-80
2022/03/09 01:41:07;;;;;;;2.87;2.77;;;;;;;3.36;63.68;94364.06;2616686;54;20164;-78
2022/03/09 01:43:38;;;;;;;2.03;1.90;;;;;;;2.99;62.99;94358.53;2615932;47;20167;-77
2022/03/09 01:46:07;;;;;;;2.40;2.20;;;;;;;2.57;58.29;94372.91;2615068;54;20285;-78
2022/03/09 01:48:36;;;;;;;3.20;2.03;;;;;;;2.77;65.90;94372.00;2614136;47;20348;-80
2022/03/09 01:51:07;;;;;;;3.57;2.53;;;;;;;2.52;60.62;94362.84;2616048;46;20245;-78
2022/03/09 01:53:39;;;;;;;4.03;3.63;;;;;;;2.99;56.33;94380.19;2615260;54;20463;-80
2022/03/09 01:56:08;;;;;;;1.10;1.10;;;;;;;3.26;55.36;94313.13;2615979;54;21061;-81
2022/03/09 01:58:51;;;;;;;2.73;2.53;;;;;;;3.09;56.47;94347.16;2615605;47;20161;-78
2022/03/09 02:01:20;;;;;;;2.03;1.90;;;;;;;3.63;59.67;94391.41;2615824;39;20539;-78
2022/03/09 02:03:49;;;;;;;3.57;3.30;;;;;;;4.03;65.58;94305.22;2615463;54;20180;-81
2022/03/09 02:06:18;;;;;;;5.43;2.87;;;;;;;3.64;64.03;94260.50;2615551;47;20303;-83
2022/03/09 02:11:29;;;;;;;0.73;0.73;;;;;;;2.66;61.15;94328.03;2613498;47;20236;-78
2022/03/09 02:14:00;;;;;;;3.77;3.50;;;;;;;3.95;61.68;94377.66;2613749;46;20185;-77
2022/03/09 02:16:29;;;;;;;2.63;1.73;;;;;;;3.01;56.02;94346.72;2615612;54;20157;-79
2022/03/09 02:18:58;;;;;;;2.47;1.47;;;;;;;2.87;53.75;94357.84;2615625;54;20258;-77
2022/03/09 02:21:29;;;;;;;3.80;3.17;;;;;;;2.23;54.91;94371.63;2614804;47;20154;-77
2022/03/09 02:24:00;;;;;;;1.50;1.50;;;;;;;2.72;63.64;94355.63;2614527;54;20220;-79
2022/03/09 02:26:37;;;;;;;3.13;3.03;;;;;;;2.17;58.07;94368.50;2614610;47;20653;-81
2022/03/09 02:29:05;;;;;;;3.07;2.63;;;;;;;1.16;59.79;94318.47;2614973;47;20175;-79
